Terminal Aerodrome Forecast
Issued by NWS Bismarck, ND

Home | Current Version | Previous Version | Graphics & Text | Print | Product List | Glossary On
Versions: 1 2 3 4 5 6 7 8 9 10 11 12 13 14 15 16
064
FTUS43 KBIS 221133
TAFBIS
TAF
KBIS 221133Z 2212/2312 15015KT P6SM VCTS BKN025 OVC045CB
     FM221400 16014G24KT P6SM OVC025
     FM222200 18009KT P6SM -SHRA BKN080
      TEMPO 2222/2224 TSRA BKN040CB
     FM230400 VRB03KT P6SM BKN090
     FM231000 19004KT P6SM SCT070=

USA.gov is the U.S. government's official web portal to all federal, state and local government web resources and services.